Flight Track Log - Related Links

Times and Time Zones

All times are in EDT time to prevent confusion due to time zone crossing. See the N137TK flight status page for this flight to view local times or setup timezone preferences in your user account.

Time Position Orientation Groundspeed Altitude Reporting Facility
EDT Latitude Longitude Course Direction KTS MPH feet Rate Location/Type
Mon 10:11:36 AM 26.2150 -81.8328 354° North 157 181 3,600  Level Miami Center
Mon 10:12:36 AM 26.2628 -81.8372 355° North 170 196 5,600 2,000 Climbing Miami Center
Mon 10:13:36 AM 26.3064 -81.8436 353° North 170 196 7,600 1,900 Climbing Miami Center
Mon 10:14:36 AM 26.3567 -81.8456 358° North 176 203 9,400 1,350 Climbing Miami Center
Mon 10:15:36 AM 26.4106 -81.8525 353° North 201 231 10,300 1,537 Climbing Miami Center
Mon 10:16:00 AM 26.5095 -81.8442 354° North  Level Estimated
Mon 10:16:37 AM 26.4625 -81.8594 353° North 201 231 12,500  Level Miami Center
Mon 10:17:36 AM 26.5167 -81.8664 353° North 196 226 14,100 1,462 Climbing Miami Center
Mon 10:18:36 AM 26.5708 -81.8686 358° North 196 226 15,400 1,450 Climbing Miami Center
Mon 10:19:36 AM 26.6228 -81.8756 353° North 196 226 17,000 1,537 Climbing Miami Center
Mon 10:20:37 AM 26.6706 -81.8822 353° North 190 219 18,500 1,400 Climbing Miami Center
Mon 10:21:36 AM 26.7164 -81.8842 358° North 175 201 19,800 1,160 Climbing Miami Center
Mon 10:22:36 AM 26.7622 -81.8883 355° North 170 196 20,800 1,041 Climbing Miami Center
Mon 10:23:37 AM 26.8100 -81.8928 355° North 170 196 21,900 600 Climbing Miami Center
Mon 10:24:36 AM 26.8661 -81.9000 353° North 177 204 22,000 50 Climbing Miami Center
Mon 10:25:36 AM 26.9306 -81.9072 354° North 207 238 22,000  Level Miami Center
Mon 10:26:36 AM 26.9972 -81.9125 356° North 233 268 22,000  Level Miami Center
Mon 10:27:36 AM 27.0681 -81.9156 358° North 240 276 22,000  Level Miami Center
Mon 10:28:36 AM 27.1283 -81.9231 354° North 240 276 22,000  Level Miami Center
Mon 10:29:36 AM 27.1969 -81.9306 354° North 247 284 22,000  Level Miami Center
Mon 10:30:36 AM 27.2717 -81.9386 355° North 242 278 22,000  Level Miami Center
Mon 10:31:36 AM 27.3403 -81.9464 354° North 242 278 22,000  Level Miami Center
Mon 10:32:36 AM 27.4047 -81.9539 354° North 237 273 22,000  Level Miami Center
Mon 10:33:36 AM 27.4694 -81.9589 356° North 237 273 22,000  Level Miami Center
Mon 10:34:36 AM 27.5442 -81.9669 355° North 237 273 22,000  Level Miami Center
Mon 10:35:36 AM 27.6128 -81.9747 354° North 237 273 22,000  Level Miami Center
Mon 10:36:36 AM 27.6792 -81.9825 354° North 237 273 22,000  Level Miami Center
Mon 10:37:36 AM 27.7397 -81.9875 356° North 237 273 22,000  Level Miami Center
Mon 10:41:05 AM 27.9842 -82.0136 355° North 236 272 22,000  Level Jacksonville Center
Mon 10:42:05 AM 28.0511 -82.0272 350° North 243 280 22,000  Level Jacksonville Center
Mon 10:43:05 AM 28.1158 -82.0383 351° North 243 280 22,000  Level Jacksonville Center
Mon 10:44:05 AM 28.1847 -82.0494 352° North 237 273 22,000  Level Jacksonville Center
Mon 10:45:05 AM 28.2453 -82.0725 341° North 237 273 22,000  Level Jacksonville Center
Mon 10:46:05 AM 28.3000 -82.1100 329° Northwest 226 260 22,000  Level Jacksonville Center
Mon 10:47:05 AM 28.3544 -82.1497 327° Northwest 226 260 22,000  Level Jacksonville Center
Mon 10:48:05 AM 28.4089 -82.1844 331° Northwest 232 267 22,000  Level Jacksonville Center
Mon 10:49:05 AM 28.4653 -82.2244 328° Northwest 232 267 22,000 -150 Level Jacksonville Center
Mon 10:50:05 AM 28.5219 -82.2642 328° Northwest 232 267 21,700 -550 Descending Jacksonville Center
Mon 10:51:05 AM 28.5806 -82.3039 329° Northwest 237 273 20,900 -800 Descending Jacksonville Center
Mon 10:52:05 AM 28.6414 -82.3508 326° Northwest 247 284 20,100 -750 Descending Jacksonville Center
Mon 10:53:05 AM 28.6917 -82.3931 324° Northwest 253 291 19,400 -750 Descending Jacksonville Center
Mon 10:54:05 AM 28.7522 -82.4356 328° Northwest 253 291 18,600 -800 Descending Jacksonville Center
Mon 10:55:05 AM 28.8253 -82.4422 355° North 253 291 17,800 -700 Descending Jacksonville Center
Mon 10:56:05 AM 28.9006 -82.4492 355° North 253 291 17,200 -811 Descending Jacksonville Center
Mon 10:56:19 AM 28.9297 -82.4536 352° North 270 311 16,800 -800 Descending Jacksonville Center
Mon 10:57:05 AM 28.9756 -82.4558 358° North 264 304 16,400 -791 Descending Jacksonville Center
Mon 10:57:50 AM 29.0444 -82.4650 353° North 283 326 15,600 -800 Descending Jacksonville Center
Mon 10:58:05 AM 29.0569 -82.4625 10° North 276 318 15,600 -640 Level Jacksonville Center
Mon 10:59:05 AM 29.1344 -82.4694 356° North 276 318 14,800 -884 Descending Jacksonville Center
Mon 10:59:40 AM 29.1864 -82.4786 351° North 277 319 14,200 -800 Descending Jacksonville Center
Mon 11:00:05 AM 29.2094 -82.4786 360° North 276 318 14,000 -822 Descending Jacksonville Center
Mon 11:00:53 AM 29.2806 -82.4878 354° North 274 315 13,200 -800 Descending Jacksonville Center
Mon 11:01:05 AM 29.2867 -82.4878 360° North 276 318 13,200 -667 Level Jacksonville Center
Mon 11:02:05 AM 29.3619 -82.4922 357° North 302 348 12,400 -800 Descending Jacksonville Center
Mon 11:03:05 AM 29.4372 -82.5014 354° North 294 338 11,600 -1,150 Descending Jacksonville Center
Mon 11:04:05 AM 29.5144 -82.5083 356° North 281 323 10,100 -1,500 Descending Jacksonville Center
Mon 11:05:05 AM 29.5936 -82.5175 354° North 274 315 8,600 -1,450 Descending Jacksonville Center
Mon 11:06:05 AM 29.6689 -82.5244 355° North 274 315 7,200 -1,450 Descending Jacksonville Center
Mon 11:07:05 AM 29.7442 -82.5339 354° North 274 315 5,700 -1,500 Descending Jacksonville Center
Mon 11:08:05 AM 29.8233 -82.5406 356° North 274 315 4,200 -1,100 Descending Jacksonville Center
Mon 11:09:05 AM 29.8839 -82.5619 343° North 249 287 3,500 -900 Descending Jacksonville Center
Mon 11:10:05 AM 29.9383 -82.5978 330° Northwest 231 266 2,400 -750 Descending Jacksonville Center
Mon 11:11:05 AM 29.9906 -82.6336 329° Northwest 221 254 2,000 -300 Descending Jacksonville Center
Mon 11:12:05 AM 30.0367 -82.6358 358° North 195 224 1,800 -250 Descending Jacksonville Center
Mon 11:13:05 AM 30.0931 -82.6333 North 185 213 1,500 -200 Descending Jacksonville Center
Mon 11:14:05 AM 30.1389 -82.6258 North 167 192 1,400 -350 Descending Jacksonville Center
Mon 11:15:05 AM 30.1786 -82.6161 12° North 155 178 800 -450 Descending Jacksonville Center
Mon 11:16:05 AM 30.2097 -82.6042 18° North 141 162 500 1,600 Descending Jacksonville Center
Mon 11:17:05 AM 30.2475 -82.5919 16° North 141 162 4,000 3,500 Climbing Jacksonville Center
Mon 11:19:00 AM 30.1821 -82.5769 139° Southeast  Level Estimated
Mon 11:26:00 AM 30.1821 -82.5769 139° Southeast  Level Estimated
Mon 11:27:00 AM 30.1821 -82.5769 139° Southeast  Level Estimated
Mon 11:28:00 AM 30.1821 -82.5769 139° Southeast  Level Estimated
Mon 11:29:00 AM 30.1821 -82.5769 139° Southeast  Level Estimated
Mon 11:30:00 AM 30.1821 -82.5769 139° Southeast  Level Estimated
Mon 11:31:00 AM 30.1821 -82.5769 139° Southeast  Level Estimated
Mon 11:32:00 AM 30.1821 -82.5769 139° Southeast  Level Estimated
Mon 11:33:00 AM 30.1821 -82.5769 139° Southeast  Level Estimated

Login

Don't have an account? Register now (free) for customized features, flight alerts, and more!